Time;durP1;ratioP1;P1;durP2;ratioP2;P2;SDS_P1;SDS_P2;PMS_P1;PMS_P2;Temp;Humidity;BMP_temperature;BMP_pressure;BME280_temperature;BME280_humidity;BME280_pressure;Samples;Min_cycle;Max_cycle;Signal;HPM_P1;HPM_P2
2022/10/29 00:02:23;;;;;;;;;;;;;;;18.04;52.41;96188.13;4953652;28;20025;-65
2022/10/29 00:04:49;;;;;;;;;;;;;;;18.06;52.75;96188.59;4947113;28;21507;-66
2022/10/29 00:07:14;;;;;;;;;;;;;;;18.04;52.89;96187.34;5041631;28;20428;-66
2022/10/29 00:09:39;;;;;;;;;;;;;;;18.03;52.55;96191.16;5044583;28;20396;-66
2022/10/29 00:12:04;;;;;;;;;;;;;;;18.03;52.88;96189.25;5043482;28;20020;-67
2022/10/29 00:14:30;;;;;;;;;;;;;;;17.97;52.77;96195.16;5050027;28;20016;-66
2022/10/29 00:16:55;;;;;;;;;;;;;;;17.96;53.03;96185.47;5023507;28;20030;-67
2022/10/29 00:19:24;;;;;;;;;;;;;;;17.97;52.92;96187.88;4949089;29;20110;-67
2022/10/29 00:21:50;;;;;;;;;;;;;;;17.95;52.83;96187.38;5015627;28;20524;-67
2022/10/29 00:24:15;;;;;;;;;;;;;;;17.99;52.68;96182.94;5044244;28;20056;-65
2022/10/29 00:26:40;;;;;;;;;;;;;;;18.03;52.69;96181.19;5048440;28;20018;-66
2022/10/29 00:29:06;;;;;;;;;;;;;;;18.13;52.38;96175.41;5020662;28;20411;-65
2022/10/29 00:31:31;;;;;;;;;;;;;;;18.13;52.18;96182.72;5001553;28;20132;-65
2022/10/29 00:33:56;;;;;;;;;;;;;;;17.90;52.32;96184.88;5040140;28;20014;-65
2022/10/29 00:36:23;;;;;;;;;;;;;;;17.48;53.33;96186.63;5052936;28;20017;-67
2022/10/29 00:38:49;;;;;;;;;;;;;;;17.54;53.37;96190.72;5032454;28;20015;-67
2022/10/29 00:41:17;;;;;;;;;;;;;;;17.88;52.73;96184.44;4951054;28;20015;-67
2022/10/29 00:43:49;;;;;;;;;;;;;;;17.98;52.10;96181.38;4954208;28;20020;-67
2022/10/29 00:46:20;;;;;;;;;;;;;;;17.98;51.88;96184.06;5045867;28;20111;-67
2022/10/29 00:48:47;;;;;;;;;;;;;;;17.94;51.84;96180.44;5038816;28;20524;-66
2022/10/29 00:51:14;;;;;;;;;;;;;;;17.90;52.08;96179.50;4951978;28;20511;-68
2022/10/29 00:53:42;;;;;;;;;;;;;;;17.86;51.89;96183.94;4991571;28;20045;-67
2022/10/29 00:56:08;;;;;;;;;;;;;;;17.87;52.04;96182.88;4948060;28;20069;-67
2022/10/29 00:58:34;;;;;;;;;;;;;;;17.81;52.15;96186.81;5041330;28;20024;-65
2022/10/29 01:01:02;;;;;;;;;;;;;;;17.72;52.55;96181.47;5043651;28;20013;-66
2022/10/29 01:03:28;;;;;;;;;;;;;;;17.70;52.73;96193.66;5053227;28;20446;-64
2022/10/29 01:05:53;;;;;;;;;;;;;;;17.63;52.58;96184.19;4991396;28;20110;-64
2022/10/29 01:08:19;;;;;;;;;;;;;;;17.52;52.72;96188.38;4951817;29;20030;-64
2022/10/29 01:10:44;;;;;;;;;;;;;;;17.54;52.56;96191.50;5026416;28;20017;-65
2022/10/29 01:13:09;;;;;;;;;;;;;;;17.22;53.17;96192.09;5053174;28;20059;-65
2022/10/29 01:15:43;;;;;;;;;;;;;;;17.21;53.23;96195.91;5054835;28;20017;-65
2022/10/29 01:18:17;;;;;;;;;;;;;;;17.13;53.34;96203.66;4988010;28;20019;-65
2022/10/29 01:21:05;;;;;;;;;;;;;;;17.31;52.61;96204.41;5017809;28;20039;-65
2022/10/29 01:23:49;;;;;;;;;;;;;;;17.50;52.37;96209.41;4932403;29;20962;-65
2022/10/29 01:26:30;;;;;;;;;;;;;;;17.34;52.57;96209.13;5037236;28;20358;-65
2022/10/29 01:29:01;;;;;;;;;;;;;;;17.39;52.65;96203.56;5030035;28;20446;-65
2022/10/29 01:31:35;;;;;;;;;;;;;;;17.63;51.82;96208.41;5042542;28;20017;-65
2022/10/29 01:34:00;;;;;;;;;;;;;;;17.56;52.11;96204.66;5060812;28;20017;-65
2022/10/29 01:36:33;;;;;;;;;;;;;;;17.67;51.51;96198.59;5067974;28;20378;-65
2022/10/29 01:39:01;;;;;;;;;;;;;;;17.53;52.32;96198.00;5013681;28;20013;-65
2022/10/29 01:41:29;;;;;;;;;;;;;;;17.54;52.51;96196.88;4997829;28;20023;-65
2022/10/29 01:44:00;;;;;;;;;;;;;;;17.57;52.29;96195.47;4951743;29;20065;-65
2022/10/29 01:46:38;;;;;;;;;;;;;;;17.63;52.19;96191.47;4949964;28;20026;-66
2022/10/29 01:49:06;;;;;;;;;;;;;;;17.61;52.46;96191.81;4949559;29;20018;-65
2022/10/29 01:51:33;;;;;;;;;;;;;;;17.05;54.52;96204.47;4951713;28;20450;-65
2022/10/29 01:53:59;;;;;;;;;;;;;;;17.00;55.21;96198.47;4950313;28;20109;-65
2022/10/29 01:56:24;;;;;;;;;;;;;;;16.95;55.66;96199.44;4949630;28;20566;-65
2022/10/29 01:58:52;;;;;;;;;;;;;;;17.20;54.72;96197.81;4950252;28;20019;-65
2022/10/29 02:01:35;;;;;;;;;;;;;;;17.24;54.71;96197.94;4952901;28;20019;-64
2022/10/29 02:04:06;;;;;;;;;;;;;;;17.26;54.79;96188.44;4950017;28;20023;-66
2022/10/29 02:06:31;;;;;;;;;;;;;;;17.35;54.49;96180.34;4950616;29;20015;-65
2022/10/29 02:09:02;;;;;;;;;;;;;;;17.35;54.24;96183.84;4949492;28;20369;-65
2022/10/29 02:11:34;;;;;;;;;;;;;;;17.36;54.42;96190.00;4949210;28;20019;-65
2022/10/29 02:13:59;;;;;;;;;;;;;;;17.37;54.50;96189.69;4951016;29;20018;-65
2022/10/29 02:16:25;;;;;;;;;;;;;;;17.39;54.58;96194.72;4949006;28;20019;-65
2022/10/29 02:18:51;;;;;;;;;;;;;;;17.40;54.44;96190.91;4950268;29;20022;-65
2022/10/29 02:21:17;;;;;;;;;;;;;;;17.38;54.80;96188.56;4965724;28;20053;-65
2022/10/29 02:23:42;;;;;;;;;;;;;;;17.29;55.00;96198.53;4949967;28;20877;-65
2022/10/29 02:26:08;;;;;;;;;;;;;;;17.35;54.86;96191.09;5049211;28;20021;-65
2022/10/29 02:28:33;;;;;;;;;;;;;;;17.37;54.82;96186.19;5051430;28;20112;-65
2022/10/29 02:30:58;;;;;;;;;;;;;;;17.35;54.72;96191.09;5002523;28;20494;-65
2022/10/29 02:33:23;;;;;;;;;;;;;;;17.29;54.99;96193.16;4949980;29;20455;-65
2022/10/29 02:35:48;;;;;;;;;;;;;;;17.24;54.85;96187.19;4963903;28;20525;-65
2022/10/29 02:38:14;;;;;;;;;;;;;;;17.27;54.81;96176.56;4950336;28;20042;-65
2022/10/29 02:40:39;;;;;;;;;;;;;;;17.24;54.40;96171.84;5020022;28;20484;-65
2022/10/29 02:43:04;;;;;;;;;;;;;;;17.27;54.32;96173.88;5014612;28;20015;-65
2022/10/29 02:45:29;;;;;;;;;;;;;;;17.29;54.05;96171.66;4990022;28;20019;-65
2022/10/29 02:47:54;;;;;;;;;;;;;;;17.30;53.87;96167.06;4949142;29;20031;-65
2022/10/29 02:50:20;;;;;;;;;;;;;;;17.31;53.91;96157.91;4998756;28;20014;-65
2022/10/29 02:52:45;;;;;;;;;;;;;;;17.33;53.97;96163.75;5050592;28;20059;-65
2022/10/29 02:55:10;;;;;;;;;;;;;;;17.33;53.99;96155.69;4987069;28;20227;-65
2022/10/29 02:57:35;;;;;;;;;;;;;;;17.33;53.76;96158.38;5049069;28;20537;-65
2022/10/29 03:00:00;;;;;;;;;;;;;;;17.32;53.30;96152.19;5044268;28;20012;-65
2022/10/29 03:02:26;;;;;;;;;;;;;;;17.33;53.38;96167.22;5040166;28;20021;-66
2022/10/29 03:04:51;;;;;;;;;;;;;;;17.17;53.77;96173.44;4988156;28;20055;-66
2022/10/29 03:07:16;;;;;;;;;;;;;;;17.20;53.79;96164.72;5049604;28;20363;-66
2022/10/29 03:09:41;;;;;;;;;;;;;;;17.22;53.58;96165.22;5045100;28;20374;-67
2022/10/29 03:12:06;;;;;;;;;;;;;;;17.23;53.37;96164.88;5011537;28;20471;-67
2022/10/29 03:14:32;;;;;;;;;;;;;;;17.23;53.29;96166.78;4950220;28;20019;-66
2022/10/29 03:16:57;;;;;;;;;;;;;;;17.22;52.99;96157.94;4977155;28;20019;-66
2022/10/29 03:19:22;;;;;;;;;;;;;;;17.25;53.08;96168.06;4949486;28;20015;-66
2022/10/29 03:21:47;;;;;;;;;;;;;;;17.27;52.86;96165.81;4947852;28;20443;-66
2022/10/29 03:24:12;;;;;;;;;;;;;;;17.28;52.88;96164.72;5009585;22;20099;-73
2022/10/29 03:26:38;;;;;;;;;;;;;;;17.29;52.90;96174.34;5084465;28;20069;-73
2022/10/29 03:29:03;;;;;;;;;;;;;;;17.28;52.88;96167.41;5070464;28;20479;-73
2022/10/29 03:31:28;;;;;;;;;;;;;;;17.30;52.86;96164.38;5084170;28;20487;-73
2022/10/29 03:33:53;;;;;;;;;;;;;;;17.31;52.67;96174.03;5069378;28;20377;-73
2022/10/29 03:36:18;;;;;;;;;;;;;;;17.32;52.77;96175.63;5084334;28;20465;-74
2022/10/29 03:38:44;;;;;;;;;;;;;;;17.32;52.63;96167.56;5069392;28;20107;-74
2022/10/29 03:41:09;;;;;;;;;;;;;;;17.32;52.58;96165.66;5068768;28;20017;-73
2022/10/29 03:43:38;;;;;;;;;;;;;;;17.32;52.58;96171.03;5068956;28;20005;-73
2022/10/29 03:46:03;;;;;;;;;;;;;;;17.31;52.68;96160.59;5059819;28;20013;-73
2022/10/29 03:48:28;;;;;;;;;;;;;;;17.29;52.68;96168.19;5050191;28;20112;-73
2022/10/29 03:50:55;;;;;;;;;;;;;;;17.32;52.67;96154.09;5081014;28;20040;-72
2022/10/29 03:53:20;;;;;;;;;;;;;;;17.34;52.53;96158.03;5070327;28;20017;-73
2022/10/29 03:55:45;;;;;;;;;;;;;;;17.35;52.28;96161.50;5084364;28;20058;-73
2022/10/29 03:58:11;;;;;;;;;;;;;;;17.38;52.41;96164.34;5062126;28;20013;-74
2022/10/29 04:00:36;;;;;;;;;;;;;;;17.44;52.10;96156.91;5060959;28;20059;-73
2022/10/29 04:03:01;;;;;;;;;;;;;;;17.56;52.05;96154.34;5067088;28;20025;-73
2022/10/29 04:05:26;;;;;;;;;;;;;;;17.71;51.76;96161.06;5084292;28;20013;-74
2022/10/29 04:07:51;;;;;;;;;;;;;;;17.86;51.27;96157.84;5070120;28;20153;-73
2022/10/29 04:10:17;;;;;;;;;;;;;;;18.00;50.61;96149.50;5068636;28;20009;-73
2022/10/29 04:12:45;;;;;;;;;;;;;;;18.10;50.25;96149.13;5054859;28;20017;-73
2022/10/29 04:15:10;;;;;;;;;;;;;;;18.22;50.10;96150.31;5056586;28;20009;-74
2022/10/29 04:17:36;;;;;;;;;;;;;;;18.29;49.54;96156.00;5069589;28;20545;-74
2022/10/29 04:20:01;;;;;;;;;;;;;;;18.33;49.63;96152.31;5068694;28;20009;-74
2022/10/29 04:22:26;;;;;;;;;;;;;;;18.38;49.36;96156.72;5069801;28;20442;-73
2022/10/29 04:24:52;;;;;;;;;;;;;;;18.43;49.04;96159.22;5068012;28;20456;-72
2022/10/29 04:27:17;;;;;;;;;;;;;;;18.49;48.70;96171.34;5069658;28;20532;-73
2022/10/29 04:29:42;;;;;;;;;;;;;;;18.53;48.65;96160.69;5068307;28;20144;-73
2022/10/29 04:32:07;;;;;;;;;;;;;;;18.54;48.74;96165.78;5066073;28;20110;-73
2022/10/29 04:34:33;;;;;;;;;;;;;;;18.56;48.52;96166.22;5050265;28;20017;-73
2022/10/29 04:36:58;;;;;;;;;;;;;;;18.60;48.47;96166.34;5069347;28;20005;-73
2022/10/29 04:39:23;;;;;;;;;;;;;;;18.63;48.07;96163.81;5068020;28;20017;-73
2022/10/29 04:41:48;;;;;;;;;;;;;;;18.67;47.88;96153.13;5066415;28;20039;-74
2022/10/29 04:44:13;;;;;;;;;;;;;;;18.67;47.92;96156.59;5069666;28;20392;-73
2022/10/29 04:46:39;;;;;;;;;;;;;;;18.68;47.71;96165.50;5083180;28;20086;-73
2022/10/29 04:49:04;;;;;;;;;;;;;;;18.67;47.85;96155.81;5069495;28;20017;-73
2022/10/29 04:51:29;;;;;;;;;;;;;;;18.65;47.56;96152.69;5068471;28;20052;-73
2022/10/29 04:53:54;;;;;;;;;;;;;;;18.62;47.63;96148.72;5069132;28;20444;-72
2022/10/29 04:56:19;;;;;;;;;;;;;;;18.56;47.54;96144.66;5066559;28;20466;-73
2022/10/29 04:58:45;;;;;;;;;;;;;;;18.53;47.52;96141.84;5069391;28;20009;-73
2022/10/29 05:01:10;;;;;;;;;;;;;;;18.51;47.80;96146.78;5067423;28;20013;-73
2022/10/29 05:03:35;;;;;;;;;;;;;;;18.48;47.60;96144.72;5055945;28;20050;-72
2022/10/29 05:06:02;;;;;;;;;;;;;;;18.44;47.91;96142.72;5073359;28;20040;-72
2022/10/29 05:08:27;;;;;;;;;;;;;;;18.41;48.12;96137.19;5068985;28;20062;-73
2022/10/29 05:10:52;;;;;;;;;;;;;;;18.31;48.22;96137.59;5067070;28;20108;-73
2022/10/29 05:13:17;;;;;;;;;;;;;;;18.21;48.38;96143.34;5060718;28;20021;-73
2022/10/29 05:15:48;;;;;;;;;;;;;;;18.12;48.62;96140.75;5053808;28;20021;-73
2022/10/29 05:18:13;;;;;;;;;;;;;;;18.04;48.63;96144.28;5085046;28;20167;-73
2022/10/29 05:20:38;;;;;;;;;;;;;;;18.02;48.82;96144.59;5068696;28;20099;-73
2022/10/29 05:23:05;;;;;;;;;;;;;;;17.99;49.08;96158.72;5088573;28;20110;-73
2022/10/29 05:25:31;;;;;;;;;;;;;;;18.00;48.99;96154.13;5066172;28;20040;-72
2022/10/29 05:28:08;;;;;;;;;;;;;;;18.03;48.86;96151.56;5073239;28;20049;-73
2022/10/29 05:30:33;;;;;;;;;;;;;;;18.14;49.06;96155.44;5071484;28;20013;-73
2022/10/29 05:32:58;;;;;;;;;;;;;;;18.23;48.75;96150.00;5072825;28;20460;-73
2022/10/29 05:35:23;;;;;;;;;;;;;;;18.32;48.53;96149.94;5071755;28;20067;-73
2022/10/29 05:37:53;;;;;;;;;;;;;;;18.39;48.44;96145.59;5070749;28;20020;-73
2022/10/29 05:40:19;;;;;;;;;;;;;;;18.47;48.01;96143.94;5071121;28;20445;-73
2022/10/29 05:42:44;;;;;;;;;;;;;;;18.53;47.91;96139.13;5070955;28;20103;-73
2022/10/29 05:45:10;;;;;;;;;;;;;;;18.57;47.93;96148.16;5070401;28;20536;-73
2022/10/29 05:47:35;;;;;;;;;;;;;;;18.58;47.52;96147.84;5072392;28;20493;-72
2022/10/29 05:50:00;;;;;;;;;;;;;;;18.53;47.78;96141.84;5070788;28;20017;-74
2022/10/29 05:52:25;;;;;;;;;;;;;;;18.45;47.99;96149.66;5072128;28;20092;-74
2022/10/29 05:54:50;;;;;;;;;;;;;;;18.36;47.96;96150.84;5071051;28;20390;-72
2022/10/29 05:57:16;;;;;;;;;;;;;;;18.28;48.03;96143.66;5070176;28;20070;-72
2022/10/29 05:59:41;;;;;;;;;;;;;;;18.23;48.58;96146.53;5070907;28;20016;-73
2022/10/29 06:02:07;;;;;;;;;;;;;;;18.24;48.61;96151.59;5068875;28;20064;-73
2022/10/29 06:04:33;;;;;;;;;;;;;;;18.29;48.28;96158.69;5086486;28;20062;-73
2022/10/29 06:06:59;;;;;;;;;;;;;;;18.30;48.21;96163.72;5087283;28;20108;-73
2022/10/29 06:09:24;;;;;;;;;;;;;;;18.34;48.13;96161.19;5086332;28;20030;-73
2022/10/29 06:11:49;;;;;;;;;;;;;;;18.40;47.95;96167.94;5071052;28;20017;-73
2022/10/29 06:14:14;;;;;;;;;;;;;;;18.49;47.90;96176.75;5062988;28;20020;-73
2022/10/29 06:16:40;;;;;;;;;;;;;;;18.56;47.71;96176.22;5070059;28;20028;-71
2022/10/29 06:19:05;;;;;;;;;;;;;;;18.59;47.56;96168.28;5070550;28;20013;-72
2022/10/29 06:21:30;;;;;;;;;;;;;;;18.62;47.56;96164.91;5086596;28;20078;-70
2022/10/29 06:23:56;;;;;;;;;;;;;;;18.63;47.41;96165.69;5071077;28;20120;-69
2022/10/29 06:26:21;;;;;;;;;;;;;;;18.64;47.35;96170.75;5086229;28;20060;-69
2022/10/29 06:28:46;;;;;;;;;;;;;;;18.68;47.23;96169.03;5070921;28;20009;-69
2022/10/29 06:31:12;;;;;;;;;;;;;;;18.75;47.14;96165.00;5085354;28;20013;-69
2022/10/29 06:33:37;;;;;;;;;;;;;;;18.82;47.09;96166.03;5070094;28;20059;-69
2022/10/29 06:36:02;;;;;;;;;;;;;;;18.90;47.26;96161.69;5069772;28;20017;-71
2022/10/29 06:38:28;;;;;;;;;;;;;;;19.01;46.86;96170.13;5071354;28;20067;-69
2022/10/29 06:40:53;;;;;;;;;;;;;;;19.09;46.61;96170.06;5086013;28;20021;-69
2022/10/29 06:43:18;;;;;;;;;;;;;;;19.17;46.73;96179.94;5067939;28;20120;-71
2022/10/29 06:45:43;;;;;;;;;;;;;;;19.26;46.29;96173.69;5068694;28;20013;-70
2022/10/29 06:48:09;;;;;;;;;;;;;;;19.36;46.27;96174.03;5071499;28;20202;-71
2022/10/29 06:50:34;;;;;;;;;;;;;;;19.52;46.20;96179.56;5069765;28;20067;-69
2022/10/29 06:53:01;;;;;;;;;;;;;;;19.68;45.83;96171.63;5071023;28;20044;-72
2022/10/29 06:55:26;;;;;;;;;;;;;;;19.90;45.32;96171.16;5067165;28;20436;-67
2022/10/29 06:57:55;;;;;;;;;;;;;;;20.08;44.89;96179.84;5060282;28;20039;-68
2022/10/29 07:00:21;;;;;;;;;;;;;;;20.26;44.37;96175.75;5068720;28;20017;-69
2022/10/29 07:02:46;;;;;;;;;;;;;;;20.47;43.89;96170.22;5071125;28;20350;-70
2022/10/29 07:05:11;;;;;;;;;;;;;;;20.61;43.25;96167.13;5061195;28;20102;-69
2022/10/29 07:07:36;;;;;;;;;;;;;;;20.79;43.20;96172.25;5070830;28;20017;-71
2022/10/29 07:10:02;;;;;;;;;;;;;;;20.97;42.88;96168.13;5069723;28;20014;-71
2022/10/29 07:12:27;;;;;;;;;;;;;;;21.14;42.48;96175.94;5069692;28;20381;-71
2022/10/29 07:14:52;;;;;;;;;;;;;;;21.31;42.06;96174.84;5068937;28;20056;-71
2022/10/29 07:17:18;;;;;;;;;;;;;;;21.46;41.90;96179.50;5068382;28;20422;-69
2022/10/29 07:19:43;;;;;;;;;;;;;;;21.63;41.77;96174.84;5070606;28;20067;-68
2022/10/29 07:22:08;;;;;;;;;;;;;;;21.77;41.07;96176.00;5069122;28;20009;-69
2022/10/29 07:24:33;;;;;;;;;;;;;;;21.88;40.82;96170.03;5068816;28;20028;-69
2022/10/29 07:27:00;;;;;;;;;;;;;;;22.03;40.69;96177.34;5067386;28;20017;-68
2022/10/29 07:29:25;;;;;;;;;;;;;;;22.17;40.50;96176.94;5069245;28;20574;-68
2022/10/29 07:31:51;;;;;;;;;;;;;;;22.27;40.27;96182.59;5069464;28;20024;-68
2022/10/29 07:34:16;;;;;;;;;;;;;;;22.41;40.19;96178.59;5067785;28;20013;-69
2022/10/29 07:36:41;;;;;;;;;;;;;;;22.55;39.88;96187.81;5069832;28;20009;-69
2022/10/29 07:39:06;;;;;;;;;;;;;;;22.66;39.56;96187.25;5069088;28;20048;-69
2022/10/29 07:41:32;;;;;;;;;;;;;;;22.77;39.26;96188.25;5068462;28;20540;-69
2022/10/29 07:43:57;;;;;;;;;;;;;;;22.84;38.95;96186.50;5068975;28;20009;-69
2022/10/29 07:46:22;;;;;;;;;;;;;;;22.96;39.16;96187.50;5067606;28;20051;-69
2022/10/29 07:48:48;;;;;;;;;;;;;;;23.03;38.80;96193.88;5070019;28;20071;-70
2022/10/29 07:51:13;;;;;;;;;;;;;;;23.14;38.70;96185.94;5068819;28;20397;-69
2022/10/29 07:53:38;;;;;;;;;;;;;;;23.22;38.97;96193.03;5069964;28;20500;-70
2022/10/29 07:56:03;;;;;;;;;;;;;;;23.30;38.76;96183.91;5065084;28;20485;-69
2022/10/29 07:58:29;;;;;;;;;;;;;;;23.42;38.54;96190.31;5050153;28;20009;-70
2022/10/29 08:00:54;;;;;;;;;;;;;;;23.49;38.20;96179.56;5058895;28;20158;-69
2022/10/29 08:03:19;;;;;;;;;;;;;;;23.57;37.98;96178.53;5085629;28;20020;-69
2022/10/29 08:05:48;;;;;;;;;;;;;;;23.66;37.88;96183.78;5067747;28;20496;-70
2022/10/29 08:08:13;;;;;;;;;;;;;;;23.69;38.07;96175.66;5067321;28;20078;-69
2022/10/29 08:10:38;;;;;;;;;;;;;;;23.75;37.60;96181.56;5067206;28;20013;-71
2022/10/29 08:13:04;;;;;;;;;;;;;;;23.76;37.56;96183.94;5084365;28;20016;-71
2022/10/29 08:15:30;;;;;;;;;;;;;;;23.85;37.88;96181.75;5066845;28;20013;-71
2022/10/29 08:17:56;;;;;;;;;;;;;;;23.94;37.54;96180.72;5070212;28;20017;-71
2022/10/29 08:20:22;;;;;;;;;;;;;;;24.03;37.60;96175.81;5066961;28;20381;-70
2022/10/29 08:22:47;;;;;;;;;;;;;;;24.12;37.39;96182.56;5085165;28;20044;-71
2022/10/29 08:25:12;;;;;;;;;;;;;;;24.22;37.25;96177.66;5070235;28;20090;-71
2022/10/29 08:27:38;;;;;;;;;;;;;;;24.33;37.23;96173.13;5066447;28;20056;-72
2022/10/29 08:30:04;;;;;;;;;;;;;;;24.43;37.00;96175.25;5061860;28;20013;-75
2022/10/29 08:32:29;;;;;;;;;;;;;;;24.52;36.73;96178.47;5064270;28;20107;-70
2022/10/29 08:34:55;;;;;;;;;;;;;;;24.64;36.72;96172.03;5073293;28;20044;-71
2022/10/29 08:37:20;;;;;;;;;;;;;;;24.72;36.51;96173.69;5087810;28;20107;-73
2022/10/29 08:39:45;;;;;;;;;;;;;;;24.80;36.01;96174.53;5084009;28;20009;-72
2022/10/29 08:42:10;;;;;;;;;;;;;;;24.91;36.24;96170.00;5057623;28;20430;-73
2022/10/29 08:44:36;;;;;;;;;;;;;;;25.02;36.16;96162.75;5050490;28;20016;-73
2022/10/29 08:47:19;;;;;;;;;;;;;;;25.16;35.89;96167.59;5064771;28;20023;-73
2022/10/29 08:49:44;;;;;;;;;;;;;;;25.28;35.92;96163.81;5069881;28;20017;-71
2022/10/29 08:52:15;;;;;;;;;;;;;;;25.33;35.43;96166.19;5070230;28;20011;-71
2022/10/29 08:54:42;;;;;;;;;;;;;;;25.37;35.47;96167.78;5069754;28;20492;-72
2022/10/29 08:57:12;;;;;;;;;;;;;;;25.41;35.03;96163.16;5053636;28;20014;-72
2022/10/29 08:59:40;;;;;;;;;;;;;;;25.40;34.98;96166.28;5054192;28;20010;-73
2022/10/29 09:02:13;;;;;;;;;;;;;;;25.41;34.98;96167.84;5055706;28;20084;-71
2022/10/29 09:04:38;;;;;;;;;;;;;;;25.44;35.10;96166.28;5073550;28;20044;-72
2022/10/29 09:07:07;;;;;;;;;;;;;;;25.47;35.10;96168.28;5072257;28;20527;-72
2022/10/29 09:09:38;;;;;;;;;;;;;;;25.46;34.81;96174.91;5053469;28;20066;-73
2022/10/29 09:12:14;;;;;;;;;;;;;;;25.47;34.86;96171.00;5053762;28;20474;-74
2022/10/29 09:14:58;;;;;;;;;;;;;;;25.49;34.94;96171.41;5052198;28;20146;-71
2022/10/29 09:17:34;;;;;;;;;;;;;;;25.52;34.60;96174.16;5055637;28;20484;-72
2022/10/29 09:20:18;;;;;;;;;;;;;;;25.63;34.18;96177.75;5073056;28;20016;-71
2022/10/29 09:22:44;;;;;;;;;;;;;;;25.75;34.17;96171.28;5073243;28;20016;-72
2022/10/29 09:25:28;;;;;;;;;;;;;;;25.79;33.50;96179.47;5072690;28;20060;-72
2022/10/29 09:27:59;;;;;;;;;;;;;;;25.83;33.19;96183.03;5068297;28;20030;-71
2022/10/29 09:30:28;;;;;;;;;;;;;;;25.78;33.19;96177.91;5051487;28;20014;-71
2022/10/29 09:33:06;;;;;;;;;;;;;;;25.67;33.43;96183.25;5058646;28;20020;-71
2022/10/29 09:35:38;;;;;;;;;;;;;;;25.53;33.46;96186.63;5071447;28;20025;-77
2022/10/29 09:38:12;;;;;;;;;;;;;;;25.35;33.72;96178.28;5070036;28;20013;-70
2022/10/29 09:40:39;;;;;;;;;;;;;;;25.17;34.01;96184.72;5071283;28;20266;-70
2022/10/29 09:43:14;;;;;;;;;;;;;;;25.00;34.20;96178.66;5072828;28;20017;-70
2022/10/29 09:45:54;;;;;;;;;;;;;;;24.87;34.26;96183.56;5087431;28;20110;-69
2022/10/29 09:48:22;;;;;;;;;;;;;;;24.81;34.01;96185.03;5067268;28;20021;-69
2022/10/29 09:50:55;;;;;;;;;;;;;;;24.83;34.10;96180.03;5052792;28;20092;-68
2022/10/29 09:53:20;;;;;;;;;;;;;;;24.86;34.35;96182.00;5068439;28;20331;-69
2022/10/29 09:55:52;;;;;;;;;;;;;;;24.90;34.22;96168.44;5052564;28;20016;-70
2022/10/29 09:58:19;;;;;;;;;;;;;;;24.85;34.39;96168.78;5051462;28;20098;-70
2022/10/29 10:00:44;;;;;;;;;;;;;;;24.99;34.19;96171.66;5070275;28;20017;-71
2022/10/29 10:03:13;;;;;;;;;;;;;;;25.07;34.65;96164.38;5072421;28;20014;-71
2022/10/29 10:06:14;;;;;;;;;;;;;;;24.79;34.49;96168.31;5072599;28;20100;-71
2022/10/29 10:08:57;;;;;;;;;;;;;;;25.20;34.10;96152.06;5030034;28;20022;-71
2022/10/29 10:11:23;;;;;;;;;;;;;;;25.40;33.96;96150.72;5054566;28;20029;-70
2022/10/29 10:13:58;;;;;;;;;;;;;;;25.53;33.79;96150.44;5053202;28;20013;-70
2022/10/29 10:16:25;;;;;;;;;;;;;;;25.61;33.96;96144.66;5072344;28;20019;-70
2022/10/29 10:18:51;;;;;;;;;;;;;;;25.65;33.37;96147.44;5087433;28;20415;-69
2022/10/29 10:21:26;;;;;;;;;;;;;;;25.74;33.60;96142.44;5059763;28;20021;-70
2022/10/29 10:23:52;;;;;;;;;;;;;;;25.82;33.04;96135.91;5052566;28;20040;-69
2022/10/29 10:26:30;;;;;;;;;;;;;;;25.78;33.15;96132.38;5050741;28;20014;-70
2022/10/29 10:29:14;;;;;;;;;;;;;;;25.97;32.84;96131.34;5054044;28;20393;-70
2022/10/29 10:31:44;;;;;;;;;;;;;;;26.16;32.97;96116.66;5071204;28;20012;-70
2022/10/29 10:34:20;;;;;;;;;;;;;;;26.23;32.64;96122.16;5070621;28;20022;-70
2022/10/29 10:36:56;;;;;;;;;;;;;;;26.34;32.59;96120.25;5087216;28;20013;-71
2022/10/29 10:39:30;;;;;;;;;;;;;;;26.51;32.13;96123.47;5072255;28;20009;-72
2022/10/29 10:41:58;;;;;;;;;;;;;;;26.52;31.84;96120.38;5086182;28;20013;-71
2022/10/29 10:44:24;;;;;;;;;;;;;;;26.65;31.47;96118.84;5071790;28;20168;-73
2022/10/29 10:46:53;;;;;;;;;;;;;;;26.35;31.36;96113.63;5071562;28;20484;-81
2022/10/29 10:49:35;;;;;;;;;;;;;;;26.60;31.38;96118.44;5071805;28;20009;-73
2022/10/29 10:52:20;;;;;;;;;;;;;;;26.81;30.96;96118.53;5078414;28;20020;-74
2022/10/29 10:54:59;;;;;;;;;;;;;;;26.97;30.52;96101.78;5050663;28;20017;-74
2022/10/29 10:57:28;;;;;;;;;;;;;;;27.01;30.02;96104.53;5051233;28;20075;-74
2022/10/29 11:00:06;;;;;;;;;;;;;;;27.10;30.19;96102.25;5051444;28;20014;-75
2022/10/29 11:02:50;;;;;;;;;;;;;;;27.11;30.26;96101.06;5074985;28;20021;-74
2022/10/29 11:05:17;;;;;;;;;;;;;;;27.16;29.80;96097.97;5059310;28;20013;-75
2022/10/29 11:07:45;;;;;;;;;;;;;;;27.19;30.03;96102.66;5070962;28;20465;-74
2022/10/29 11:10:12;;;;;;;;;;;;;;;27.25;30.13;96098.38;5086449;28;20021;-74
2022/10/29 11:12:43;;;;;;;;;;;;;;;27.27;30.22;96095.25;5063428;28;20466;-74
2022/10/29 11:15:17;;;;;;;;;;;;;;;27.28;29.83;96091.34;5050482;28;20105;-74
2022/10/29 11:17:49;;;;;;;;;;;;;;;27.31;29.93;96091.34;5050596;28;20107;-74
2022/10/29 11:20:19;;;;;;;;;;;;;;;27.36;29.84;96092.91;5049416;28;20024;-74
2022/10/29 11:22:53;;;;;;;;;;;;;;;27.43;30.00;96077.28;5070631;28;20048;-74
2022/10/29 11:25:20;;;;;;;;;;;;;;;27.51;30.46;96083.53;5070025;28;20051;-73
2022/10/29 11:28:00;;;;;;;;;;;;;;;27.50;29.71;96076.53;5070428;28;20020;-74
2022/10/29 11:30:27;;;;;;;;;;;;;;;27.60;30.28;96069.50;5084852;28;20065;-74
2022/10/29 11:33:04;;;;;;;;;;;;;;;27.83;29.45;96071.81;5070676;28;20477;-73
2022/10/29 11:35:45;;;;;;;;;;;;;;;27.84;29.16;96065.97;5070369;28;20020;-74
2022/10/29 11:38:17;;;;;;;;;;;;;;;27.96;28.69;96070.25;5070478;28;20062;-74
2022/10/29 11:40:48;;;;;;;;;;;;;;;27.99;28.56;96059.28;5085814;28;20013;-74
2022/10/29 11:43:16;;;;;;;;;;;;;;;28.11;28.36;96058.09;5058314;28;20014;-73
2022/10/29 11:45:53;;;;;;;;;;;;;;;28.19;28.08;96067.06;5050175;28;20019;-74
2022/10/29 11:48:21;;;;;;;;;;;;;;;28.22;27.86;96058.84;5050269;28;20025;-74
2022/10/29 11:50:51;;;;;;;;;;;;;;;28.26;27.80;96055.31;5049869;28;20481;-74
2022/10/29 11:53:26;;;;;;;;;;;;;;;28.23;27.65;96056.88;5049173;28;20024;-74
2022/10/29 11:56:00;;;;;;;;;;;;;;;28.30;27.80;96045.13;5049909;28;20115;-74
2022/10/29 11:58:33;;;;;;;;;;;;;;;28.32;27.79;96043.56;5048869;28;20013;-74
2022/10/29 12:01:02;;;;;;;;;;;;;;;28.31;28.08;96042.00;5054661;28;20099;-74
2022/10/29 12:03:42;;;;;;;;;;;;;;;28.29;27.77;96038.09;5085323;28;20024;-74
2022/10/29 12:06:19;;;;;;;;;;;;;;;28.36;27.90;96040.84;5069088;28;20009;-74
2022/10/29 12:08:54;;;;;;;;;;;;;;;28.36;27.68;96043.59;5085304;28;20454;-73
2022/10/29 12:11:22;;;;;;;;;;;;;;;28.45;27.63;96030.22;5062769;28;20060;-74
2022/10/29 12:13:53;;;;;;;;;;;;;;;28.45;27.83;96025.53;5050178;28;20013;-74
2022/10/29 12:16:37;;;;;;;;;;;;;;;28.45;27.62;96019.28;5047835;28;20231;-74
2022/10/29 12:19:08;;;;;;;;;;;;;;;28.44;27.07;96017.72;5049901;28;20013;-74
2022/10/29 12:21:56;;;;;;;;;;;;;;;28.35;27.06;96029.09;5050044;28;20198;-74
2022/10/29 12:24:40;;;;;;;;;;;;;;;28.41;27.07;96018.53;5066056;28;20504;-74
2022/10/29 12:27:13;;;;;;;;;;;;;;;28.42;26.78;96012.66;5069156;28;20013;-74
2022/10/29 12:29:48;;;;;;;;;;;;;;;28.33;26.33;96020.53;5070826;28;20009;-73
2022/10/29 12:32:20;;;;;;;;;;;;;;;28.47;26.93;96020.47;5089494;28;20361;-74
2022/10/29 12:34:51;;;;;;;;;;;;;;;28.43;27.09;96014.22;5054132;28;20017;-74
2022/10/29 12:37:26;;;;;;;;;;;;;;;28.53;26.64;96011.84;5052418;28;20477;-74
2022/10/29 12:39:58;;;;;;;;;;;;;;;28.54;26.56;96013.38;5053627;28;20012;-73
2022/10/29 12:42:24;;;;;;;;;;;;;;;28.54;26.54;96005.19;5052476;28;20035;-75
2022/10/29 12:44:55;;;;;;;;;;;;;;;28.57;25.98;96007.91;5057494;28;20067;-74
2022/10/29 12:47:29;;;;;;;;;;;;;;;28.50;26.22;96005.97;5053782;28;20017;-75
2022/10/29 12:50:02;;;;;;;;;;;;;;;28.48;26.22;96002.84;5053639;28;20014;-73
2022/10/29 12:52:27;;;;;;;;;;;;;;;28.46;26.46;95999.75;5053441;28;20014;-74
2022/10/29 12:54:53;;;;;;;;;;;;;;;28.46;26.89;95993.50;5053221;28;20017;-74